Time;durP1;ratioP1;P1;durP2;ratioP2;P2;SDS_P1;SDS_P2;PMS_P1;PMS_P2;Temp;Humidity;BMP_temperature;BMP_pressure;BME280_temperature;BME280_humidity;BME280_pressure;Samples;Min_cycle;Max_cycle;Signal;HPM_P1;HPM_P2
2023/12/25 00:00:49;;;;;;;0.85;0.80;;;10.10;99.90;;;;;;5089241;28;20044;-50
2023/12/25 00:03:15;;;;;;;1.27;1.10;;;10.10;99.90;;;;;;5089551;28;20039;-50
2023/12/25 00:05:41;;;;;;;1.13;1.00;;;10.10;99.90;;;;;;5088868;28;20031;-49
2023/12/25 00:08:06;;;;;;;1.40;0.80;;;10.10;99.90;;;;;;5070448;28;20028;-49
2023/12/25 00:10:32;;;;;;;1.30;0.90;;;10.10;99.90;;;;;;5089031;28;20032;-50
2023/12/25 00:12:57;;;;;;;1.10;1.00;;;10.10;99.90;;;;;;5086981;28;20057;-49
2023/12/25 00:15:23;;;;;;;1.20;1.00;;;10.10;99.90;;;;;;5088284;28;20040;-50
2023/12/25 00:17:49;;;;;;;1.25;1.00;;;10.10;99.90;;;;;;5088062;28;20479;-50
2023/12/25 00:20:14;;;;;;;0.98;0.70;;;10.10;99.90;;;;;;5086697;28;20138;-50
2023/12/25 00:22:40;;;;;;;1.10;0.90;;;10.10;99.90;;;;;;5086611;28;20029;-50
2023/12/25 00:25:06;;;;;;;1.58;1.00;;;10.10;99.90;;;;;;5088010;28;20040;-50
2023/12/25 00:27:31;;;;;;;1.77;0.90;;;10.10;99.90;;;;;;5088253;28;20042;-50
2023/12/25 00:29:57;;;;;;;1.20;0.90;;;10.10;99.90;;;;;;5088171;28;20025;-50
2023/12/25 00:32:23;;;;;;;1.48;0.95;;;10.10;99.90;;;;;;5086598;28;20392;-50
2023/12/25 00:34:48;;;;;;;0.70;0.70;;;10.10;99.90;;;;;;5087372;28;20050;-50
2023/12/25 00:37:14;;;;;;;1.02;0.93;;;10.10;99.90;;;;;;5086482;28;20392;-50
2023/12/25 00:39:39;;;;;;;1.30;0.90;;;10.10;99.90;;;;;;5086249;28;20036;-51
2023/12/25 00:42:05;;;;;;;1.33;0.95;;;10.10;99.90;;;;;;5087707;28;20035;-50
2023/12/25 00:44:31;;;;;;;1.42;0.98;;;10.10;99.90;;;;;;5086331;28;20028;-50
2023/12/25 00:46:56;;;;;;;1.17;0.93;;;10.10;99.90;;;;;;5087574;28;20077;-50
2023/12/25 00:49:22;;;;;;;1.00;0.80;;;10.10;99.90;;;;;;5087543;28;20029;-50
2023/12/25 00:51:47;;;;;;;1.20;0.90;;;10.10;99.90;;;;;;5087475;28;20028;-50
2023/12/25 00:54:13;;;;;;;1.35;0.98;;;10.10;99.90;;;;;;5086087;28;20107;-50
2023/12/25 00:56:38;;;;;;;1.95;1.20;;;10.10;99.90;;;;;;5087328;28;20028;-50
2023/12/25 00:59:04;;;;;;;0.93;0.82;;;10.10;99.90;;;;;;5087131;28;20372;-50
2023/12/25 01:01:30;;;;;;;1.17;0.95;;;10.10;99.90;;;;;;5085874;28;20052;-50
2023/12/25 01:03:55;;;;;;;1.00;0.90;;;10.10;99.90;;;;;;5087197;28;20025;-50
2023/12/25 01:06:21;;;;;;;1.38;0.82;;;10.10;99.90;;;;;;5085673;28;20078;-50
2023/12/25 01:08:47;;;;;;;1.35;0.80;;;10.10;99.90;;;;;;5085938;28;20020;-50
2023/12/25 01:11:12;;;;;;;0.80;0.65;;;10.10;99.90;;;;;;5085762;28;20032;-50
2023/12/25 01:13:38;;;;;;;0.98;0.70;;;10.10;99.90;;;;;;5086975;28;20067;-50
2023/12/25 01:16:04;;;;;;;1.15;0.80;;;10.00;99.90;;;;;;5085789;28;20082;-50
2023/12/25 01:18:29;;;;;;;1.13;0.90;;;10.00;99.90;;;;;;5086566;28;20036;-50
2023/12/25 01:20:55;;;;;;;1.77;0.85;;;10.10;99.90;;;;;;5085418;28;20119;-50
2023/12/25 01:23:21;;;;;;;1.30;1.00;;;10.00;99.90;;;;;;5085669;28;20020;-50
2023/12/25 01:25:46;;;;;;;1.00;0.90;;;10.10;99.90;;;;;;5085340;28;20092;-50
2023/12/25 01:28:12;;;;;;;1.17;0.80;;;10.10;99.90;;;;;;5086710;28;20032;-50
2023/12/25 01:30:37;;;;;;;0.57;0.57;;;10.00;99.90;;;;;;5085336;28;20036;-50
2023/12/25 01:33:03;;;;;;;1.52;0.85;;;10.10;99.90;;;;;;5085597;28;20362;-50
2023/12/25 01:35:29;;;;;;;0.63;0.63;;;10.10;99.90;;;;;;5085036;28;20041;-50
2023/12/25 01:37:54;;;;;;;1.08;0.68;;;10.10;99.90;;;;;;5086797;28;20036;-50
2023/12/25 01:40:21;;;;;;;1.42;0.80;;;10.10;99.90;;;;;;5086494;28;20537;-50
2023/12/25 01:42:47;;;;;;;0.85;0.75;;;10.00;99.90;;;;;;5085437;28;20480;-50
2023/12/25 01:45:13;;;;;;;3.65;0.90;;;10.10;99.90;;;;;;5085029;28;20028;-50
2023/12/25 01:47:38;;;;;;;1.15;0.85;;;10.00;99.90;;;;;;5085295;28;20034;-50
2023/12/25 01:50:05;;;;;;;0.95;0.82;;;10.10;99.90;;;;;;5085305;28;20028;-50
2023/12/25 01:52:31;;;;;;;1.10;0.90;;;10.10;99.90;;;;;;5084936;28;20040;-50
2023/12/25 01:54:57;;;;;;;0.77;0.68;;;10.00;99.90;;;;;;5085102;28;20033;-50
2023/12/25 01:57:24;;;;;;;1.20;0.75;;;10.00;99.90;;;;;;5085130;28;20032;-50
2023/12/25 01:59:49;;;;;;;1.02;0.90;;;10.00;99.90;;;;;;5085075;28;20025;-50
2023/12/25 02:02:15;;;;;;;2.55;0.80;;;10.00;99.90;;;;;;5085022;28;20032;-50
2023/12/25 02:04:40;;;;;;;0.77;0.60;;;10.00;99.90;;;;;;5085095;28;20381;-50
2023/12/25 02:07:06;;;;;;;1.20;0.80;;;10.00;99.90;;;;;;5085122;28;20028;-50
2023/12/25 02:09:31;;;;;;;0.82;0.80;;;10.00;99.90;;;;;;5085079;28;20059;-50
2023/12/25 02:11:57;;;;;;;2.03;1.08;;;10.00;99.90;;;;;;5086148;28;20028;-50
2023/12/25 02:14:23;;;;;;;1.00;0.80;;;10.00;99.90;;;;;;5084962;28;20029;-50
2023/12/25 02:16:49;;;;;;;1.40;0.85;;;10.00;99.90;;;;;;5085377;28;20039;-50
2023/12/25 02:19:27;;;;;;;0.80;0.60;;;10.00;99.90;;;;;;5089242;28;20021;-50
2023/12/25 02:21:53;;;;;;;1.42;0.88;;;10.00;99.90;;;;;;5090359;28;20034;-50
2023/12/25 02:24:20;;;;;;;1.10;1.00;;;10.00;99.90;;;;;;5089194;28;20484;-50
2023/12/25 02:26:46;;;;;;;0.65;0.60;;;10.00;99.90;;;;;;5089122;28;20037;-50
2023/12/25 02:29:11;;;;;;;0.70;0.70;;;10.00;99.90;;;;;;5088916;28;20450;-50
2023/12/25 02:31:37;;;;;;;1.17;1.00;;;10.00;99.90;;;;;;5088943;28;20036;-50
2023/12/25 02:34:03;;;;;;;0.77;0.75;;;10.00;99.90;;;;;;5088515;28;20032;-50
2023/12/25 02:36:28;;;;;;;0.70;0.60;;;10.00;99.90;;;;;;5088796;28;20465;-50
2023/12/25 02:38:54;;;;;;;1.05;0.70;;;10.00;99.90;;;;;;5088744;28;20044;-50
2023/12/25 02:41:19;;;;;;;1.02;0.70;;;10.00;99.90;;;;;;5071998;28;20055;-50
2023/12/25 02:43:45;;;;;;;0.98;0.60;;;10.00;99.90;;;;;;5089979;28;20106;-51
2023/12/25 02:46:10;;;;;;;0.88;0.65;;;10.00;99.90;;;;;;5088566;28;20032;-51
2023/12/25 02:48:36;;;;;;;1.38;0.60;;;10.00;99.90;;;;;;5088285;28;20031;-51
2023/12/25 02:51:02;;;;;;;0.93;0.80;;;10.00;99.90;;;;;;5089790;28;20033;-50
2023/12/25 02:53:27;;;;;;;0.85;0.70;;;10.00;99.80;;;;;;5089707;28;20037;-50
2023/12/25 02:55:53;;;;;;;0.75;0.75;;;10.00;99.70;;;;;;5088369;28;20433;-50
2023/12/25 02:58:18;;;;;;;1.52;0.90;;;10.00;99.60;;;;;;5089586;28;20086;-50
2023/12/25 03:00:44;;;;;;;2.38;0.75;;;10.00;99.50;;;;;;5088288;28;20036;-50
2023/12/25 03:03:09;;;;;;;2.35;1.02;;;10.00;99.40;;;;;;5089593;28;20108;-50
2023/12/25 03:05:35;;;;;;;1.08;0.80;;;10.00;99.40;;;;;;5089665;28;20029;-50
2023/12/25 03:08:00;;;;;;;0.77;0.70;;;9.90;99.30;;;;;;5089368;28;20036;-50
2023/12/25 03:10:26;;;;;;;1.13;0.68;;;10.00;99.30;;;;;;5089425;28;20036;-50
2023/12/25 03:12:52;;;;;;;0.60;0.60;;;9.90;99.20;;;;;;5088139;28;20032;-50
2023/12/25 03:15:17;;;;;;;1.10;0.73;;;10.00;99.10;;;;;;5087956;28;20187;-50
2023/12/25 03:17:43;;;;;;;0.68;0.63;;;10.00;99.20;;;;;;5071231;28;20031;-50
2023/12/25 03:20:09;;;;;;;1.13;0.70;;;10.00;99.30;;;;;;5089350;28;20032;-51
2023/12/25 03:22:35;;;;;;;1.33;0.88;;;9.90;99.20;;;;;;5089029;28;20045;-50
2023/12/25 03:25:01;;;;;;;1.65;0.80;;;9.90;99.20;;;;;;5089220;28;20032;-50
2023/12/25 03:27:26;;;;;;;1.33;0.80;;;9.90;99.10;;;;;;5087915;28;20044;-50
2023/12/25 03:29:52;;;;;;;0.73;0.70;;;9.90;99.30;;;;;;5087654;28;20036;-50
2023/12/25 03:32:19;;;;;;;0.85;0.80;;;9.90;99.10;;;;;;5087478;28;20032;-50
2023/12/25 03:34:48;;;;;;;0.80;0.80;;;9.90;99.00;;;;;;5087656;28;20059;-50
2023/12/25 03:37:14;;;;;;;1.40;0.90;;;9.90;98.80;;;;;;5087681;28;20393;-50
2023/12/25 03:39:39;;;;;;;0.77;0.70;;;9.90;98.60;;;;;;5088986;28;20098;-50
2023/12/25 03:42:05;;;;;;;0.68;0.60;;;9.90;98.50;;;;;;5088587;28;20651;-50
2023/12/25 03:44:31;;;;;;;0.95;0.55;;;9.90;98.50;;;;;;5088853;28;20120;-50
2023/12/25 03:46:56;;;;;;;1.52;0.52;;;9.90;98.30;;;;;;5088676;28;20048;-50
2023/12/25 03:49:22;;;;;;;1.23;0.70;;;9.90;98.20;;;;;;5087560;28;20031;-50
2023/12/25 03:51:47;;;;;;;2.88;0.85;;;9.90;98.00;;;;;;5087389;28;20086;-50
2023/12/25 03:54:13;;;;;;;1.20;1.00;;;9.90;97.90;;;;;;5088510;28;20031;-50
2023/12/25 03:56:38;;;;;;;0.70;0.70;;;9.90;97.90;;;;;;5087266;28;20028;-50
2023/12/25 03:59:04;;;;;;;0.88;0.73;;;9.90;97.70;;;;;;5088383;28;20025;-50
2023/12/25 04:01:30;;;;;;;0.93;0.70;;;9.80;97.60;;;;;;5088705;28;20031;-50
2023/12/25 04:03:55;;;;;;;1.30;0.93;;;9.90;97.60;;;;;;5087132;28;20378;-51
2023/12/25 04:06:24;;;;;;;0.90;0.80;;;9.90;97.60;;;;;;5070330;28;20388;-50
2023/12/25 04:08:50;;;;;;;0.98;0.70;;;9.90;97.50;;;;;;5087164;28;20028;-50
2023/12/25 04:11:22;;;;;;;2.75;0.82;;;9.80;97.40;;;;;;5088353;28;20086;-50
2023/12/25 04:13:53;;;;;;;0.82;0.68;;;9.80;97.30;;;;;;5088255;28;20177;-50
2023/12/25 04:16:22;;;;;;;0.93;0.68;;;9.90;97.40;;;;;;5086709;28;20170;-50
2023/12/25 04:18:48;;;;;;;1.35;0.60;;;9.80;97.10;;;;;;5086751;28;20100;-50
2023/12/25 04:21:24;;;;;;;1.25;0.80;;;9.80;97.00;;;;;;5086782;28;20048;-50
2023/12/25 04:23:51;;;;;;;0.93;0.70;;;9.80;96.80;;;;;;5086760;28;20051;-50
2023/12/25 04:26:16;;;;;;;0.90;0.77;;;9.80;96.60;;;;;;5088093;28;20032;-50
2023/12/25 04:28:43;;;;;;;0.50;0.50;;;9.80;96.50;;;;;;5087878;28;20350;-50
2023/12/25 04:31:09;;;;;;;1.13;0.88;;;9.80;96.40;;;;;;5086744;28;20037;-50
2023/12/25 04:33:34;;;;;;;0.70;0.55;;;9.80;96.30;;;;;;5086334;28;20039;-50
2023/12/25 04:36:00;;;;;;;0.50;0.50;;;9.80;96.20;;;;;;5086612;28;20048;-50
2023/12/25 04:38:25;;;;;;;0.95;0.73;;;9.80;96.10;;;;;;5086574;28;20039;-50
2023/12/25 04:40:51;;;;;;;0.88;0.75;;;9.80;95.90;;;;;;5085823;28;20021;-50
2023/12/25 04:43:16;;;;;;;0.70;0.70;;;9.80;96.00;;;;;;5087611;28;20029;-50
2023/12/25 04:45:42;;;;;;;0.70;0.70;;;9.80;95.70;;;;;;5086397;28;20048;-50
2023/12/25 04:48:08;;;;;;;0.82;0.70;;;9.80;95.50;;;;;;5069466;28;20039;-50
2023/12/25 04:50:33;;;;;;;0.70;0.60;;;9.80;95.50;;;;;;5086234;28;20484;-50
2023/12/25 04:52:59;;;;;;;0.70;0.52;;;9.80;95.60;;;;;;5087287;28;20056;-50
2023/12/25 04:55:28;;;;;;;0.70;0.50;;;9.80;95.20;;;;;;5086115;28;20028;-50
2023/12/25 04:57:53;;;;;;;0.68;0.50;;;9.70;95.10;;;;;;5087176;28;20038;-51
2023/12/25 05:00:19;;;;;;;1.38;0.70;;;9.80;94.90;;;;;;5087193;28;20025;-50
2023/12/25 05:02:45;;;;;;;1.30;0.85;;;9.70;94.70;;;;;;5069188;28;20036;-50
2023/12/25 05:05:10;;;;;;;0.73;0.70;;;9.70;94.50;;;;;;5082833;28;20054;-50
2023/12/25 05:07:36;;;;;;;1.27;0.75;;;9.70;94.50;;;;;;5080659;28;20033;-50
2023/12/25 05:10:01;;;;;;;0.55;0.55;;;9.70;94.40;;;;;;5047146;28;20037;-50
2023/12/25 05:12:27;;;;;;;0.68;0.60;;;9.70;94.40;;;;;;5045760;28;20052;-50
2023/12/25 05:14:52;;;;;;;0.60;0.57;;;9.70;94.20;;;;;;5062468;28;20098;-50
2023/12/25 05:17:18;;;;;;;0.95;0.70;;;9.70;94.00;;;;;;5046751;28;20026;-50
2023/12/25 05:19:43;;;;;;;0.82;0.60;;;9.70;93.80;;;;;;5078809;28;20034;-50
2023/12/25 05:22:09;;;;;;;0.90;0.77;;;9.70;93.80;;;;;;5079166;28;20088;-50
2023/12/25 05:24:35;;;;;;;0.95;0.60;;;9.70;93.70;;;;;;5045486;28;20458;-50
2023/12/25 05:27:00;;;;;;;0.50;0.43;;;9.70;93.60;;;;;;5046760;28;20049;-50
2023/12/25 05:29:26;;;;;;;0.63;0.55;;;9.70;93.50;;;;;;5046723;28;20043;-50
2023/12/25 05:31:51;;;;;;;0.50;0.40;;;9.70;93.50;;;;;;5078634;28;20034;-51
2023/12/25 05:34:17;;;;;;;1.05;0.70;;;9.70;93.30;;;;;;5047253;28;20033;-50
2023/12/25 05:36:43;;;;;;;0.35;0.30;;;9.70;93.20;;;;;;5045736;28;20040;-50
2023/12/25 05:39:08;;;;;;;0.60;0.55;;;9.70;93.10;;;;;;5078802;28;20155;-50
2023/12/25 05:41:34;;;;;;;0.90;0.77;;;9.70;93.00;;;;;;5078799;28;20049;-50
2023/12/25 05:44:00;;;;;;;0.75;0.55;;;9.70;93.00;;;;;;5045130;28;20025;-50
2023/12/25 05:46:25;;;;;;;0.80;0.50;;;9.70;93.10;;;;;;5078706;28;20052;-50
2023/12/25 05:48:51;;;;;;;0.65;0.60;;;9.70;93.00;;;;;;5078472;28;20422;-50
2023/12/25 05:51:16;;;;;;;0.90;0.60;;;9.70;92.90;;;;;;5045797;28;20038;-50
2023/12/25 05:53:42;;;;;;;0.68;0.47;;;9.70;93.00;;;;;;5078235;28;20428;-50
2023/12/25 05:56:08;;;;;;;1.40;0.75;;;9.60;92.90;;;;;;5078396;28;20029;-50
2023/12/25 05:58:33;;;;;;;0.98;0.55;;;9.60;92.80;;;;;;5061504;28;20029;-51
2023/12/25 06:00:59;;;;;;;1.13;0.60;;;9.70;93.00;;;;;;5061696;28;20030;-50
2023/12/25 06:03:25;;;;;;;1.00;0.70;;;9.60;92.90;;;;;;5046318;28;20021;-50
2023/12/25 06:05:50;;;;;;;0.82;0.60;;;9.60;92.90;;;;;;5078315;28;20059;-50
2023/12/25 06:08:16;;;;;;;0.95;0.60;;;9.60;93.00;;;;;;5046281;28;20096;-50
2023/12/25 06:10:42;;;;;;;0.50;0.50;;;9.60;93.00;;;;;;5046378;28;20029;-50
2023/12/25 06:13:08;;;;;;;0.75;0.63;;;9.60;93.00;;;;;;5078068;28;20033;-51
2023/12/25 06:15:33;;;;;;;0.55;0.50;;;9.60;93.00;;;;;;5046427;28;20126;-50
2023/12/25 06:17:59;;;;;;;1.23;0.63;;;9.60;93.00;;;;;;5046023;28;20037;-50
2023/12/25 06:20:25;;;;;;;0.50;0.50;;;9.60;93.00;;;;;;5046297;28;20029;-50
2023/12/25 06:22:51;;;;;;;0.70;0.60;;;9.60;93.00;;;;;;5045953;28;20050;-50
2023/12/25 06:25:16;;;;;;;0.95;0.60;;;9.60;93.00;;;;;;5078079;28;20129;-50
2023/12/25 06:27:42;;;;;;;0.47;0.40;;;9.60;93.00;;;;;;5061461;28;20029;-50
2023/12/25 06:30:08;;;;;;;1.67;0.82;;;9.60;93.30;;;;;;5078243;28;20551;-50
2023/12/25 06:32:33;;;;;;;1.63;0.93;;;9.60;92.90;;;;;;5078092;28;20033;-50
2023/12/25 06:34:59;;;;;;;1.30;0.80;;;9.60;92.90;;;;;;5045879;28;20063;-50
2023/12/25 06:37:24;;;;;;;1.00;0.70;;;9.60;93.00;;;;;;5045714;28;20041;-50
2023/12/25 06:39:50;;;;;;;0.77;0.68;;;9.60;93.00;;;;;;5077976;28;20025;-50
2023/12/25 06:42:15;;;;;;;1.55;0.90;;;9.60;93.00;;;;;;5045989;28;20036;-50
2023/12/25 06:44:41;;;;;;;0.75;0.75;;;9.60;93.00;;;;;;5077885;28;20033;-50
2023/12/25 06:47:06;;;;;;;0.60;0.50;;;9.60;93.00;;;;;;5046013;28;20087;-50
2023/12/25 06:49:32;;;;;;;1.42;0.70;;;9.60;93.10;;;;;;5045870;28;20037;-50
2023/12/25 06:51:59;;;;;;;1.10;0.73;;;9.60;93.10;;;;;;5044531;28;20036;-50
2023/12/25 06:54:24;;;;;;;1.65;0.60;;;9.50;93.10;;;;;;5044513;28;20034;-50
2023/12/25 06:56:50;;;;;;;1.55;0.85;;;9.60;93.10;;;;;;5077793;28;20029;-50
2023/12/25 06:59:16;;;;;;;0.65;0.63;;;9.50;93.10;;;;;;5077669;28;20060;-50
2023/12/25 07:01:41;;;;;;;1.48;0.85;;;9.50;93.00;;;;;;5045878;28;20490;-50
2023/12/25 07:04:09;;;;;;;1.77;1.08;;;9.60;93.00;;;;;;5080426;28;20021;-50
2023/12/25 07:06:37;;;;;;;1.05;0.65;;;9.50;93.00;;;;;;5081022;28;20033;-50
2023/12/25 07:09:03;;;;;;;1.00;0.90;;;9.50;93.10;;;;;;5080914;28;20025;-50
2023/12/25 07:11:28;;;;;;;0.80;0.70;;;9.50;93.10;;;;;;5049478;28;20390;-50
2023/12/25 07:13:56;;;;;;;0.70;0.70;;;9.50;93.00;;;;;;5081276;28;20036;-50
2023/12/25 07:16:22;;;;;;;0.90;0.80;;;9.50;93.10;;;;;;5081268;28;20022;-50
2023/12/25 07:18:49;;;;;;;0.73;0.73;;;9.50;93.10;;;;;;5081233;28;20033;-50
2023/12/25 07:21:15;;;;;;;0.88;0.73;;;9.50;93.20;;;;;;5049176;28;20030;-50
2023/12/25 07:23:41;;;;;;;2.78;0.98;;;9.50;93.20;;;;;;5064434;28;20052;-51
2023/12/25 07:26:07;;;;;;;0.90;0.80;;;9.50;93.30;;;;;;5049169;28;20029;-50
2023/12/25 07:28:33;;;;;;;1.02;0.80;;;9.50;93.30;;;;;;5049090;28;20049;-51
2023/12/25 07:31:00;;;;;;;1.17;0.90;;;9.50;93.30;;;;;;5049042;28;20033;-50
2023/12/25 07:33:26;;;;;;;0.88;0.88;;;9.40;93.30;;;;;;5064514;28;20081;-50
2023/12/25 07:35:52;;;;;;;1.27;0.98;;;9.40;93.30;;;;;;5049023;28;20040;-50
2023/12/25 07:38:18;;;;;;;0.93;0.85;;;9.40;93.40;;;;;;5048847;28;20033;-50
2023/12/25 07:40:44;;;;;;;0.80;0.80;;;9.40;93.40;;;;;;5081012;28;20022;-50
2023/12/25 07:43:12;;;;;;;1.40;1.02;;;9.40;93.50;;;;;;5064049;28;20021;-50
2023/12/25 07:45:38;;;;;;;0.77;0.77;;;9.40;93.50;;;;;;5063609;28;20028;-49
2023/12/25 07:48:04;;;;;;;1.33;0.80;;;9.40;93.50;;;;;;5064107;28;20037;-50
2023/12/25 07:50:29;;;;;;;1.80;1.00;;;9.40;93.50;;;;;;5049903;28;20029;-50
2023/12/25 07:52:55;;;;;;;1.17;0.95;;;9.40;93.50;;;;;;5080550;28;20036;-51
2023/12/25 07:55:20;;;;;;;1.98;0.95;;;9.40;93.50;;;;;;5080730;28;20036;-51
2023/12/25 07:57:46;;;;;;;0.90;0.80;;;9.40;93.50;;;;;;5047718;28;20049;-50
2023/12/25 08:00:12;;;;;;;1.50;0.90;;;9.30;93.50;;;;;;5048592;28;20040;-50
2023/12/25 08:02:38;;;;;;;1.00;0.80;;;9.40;93.60;;;;;;5048450;28;20034;-51
2023/12/25 08:05:05;;;;;;;1.08;0.93;;;9.30;93.60;;;;;;5080408;28;20022;-51
2023/12/25 08:07:30;;;;;;;0.73;0.73;;;9.30;93.70;;;;;;5048502;28;20053;-50
2023/12/25 08:09:56;;;;;;;1.25;1.13;;;9.30;93.70;;;;;;5080517;28;20029;-51
2023/12/25 08:12:22;;;;;;;0.77;0.70;;;9.30;93.70;;;;;;5081078;28;20033;-50
2023/12/25 08:14:47;;;;;;;1.67;1.00;;;9.30;93.60;;;;;;5078851;28;20036;-51
2023/12/25 08:17:13;;;;;;;1.20;0.90;;;9.30;93.60;;;;;;5049476;28;20037;-50
2023/12/25 08:19:38;;;;;;;1.23;0.90;;;9.30;93.60;;;;;;5048966;28;20025;-49
2023/12/25 08:22:04;;;;;;;0.75;0.73;;;9.40;93.60;;;;;;5063485;28;20044;-50
2023/12/25 08:24:29;;;;;;;1.13;0.90;;;9.40;93.60;;;;;;5079878;28;20071;-50
2023/12/25 08:26:55;;;;;;;1.58;0.85;;;9.40;93.60;;;;;;5048055;28;20057;-51
2023/12/25 08:29:21;;;;;;;1.98;0.80;;;9.40;93.60;;;;;;5047852;28;20029;-50
2023/12/25 08:31:46;;;;;;;3.15;1.20;;;9.40;93.60;;;;;;5047938;28;20037;-51
2023/12/25 08:34:12;;;;;;;1.38;0.90;;;9.40;93.60;;;;;;5079773;28;20036;-50
2023/12/25 08:36:37;;;;;;;0.68;0.68;;;9.40;93.70;;;;;;5047727;28;20489;-50
2023/12/25 08:39:04;;;;;;;1.13;0.90;;;9.30;93.70;;;;;;5079710;28;20040;-51
2023/12/25 08:41:30;;;;;;;1.20;0.90;;;9.30;93.60;;;;;;5079574;28;20508;-50
2023/12/25 08:43:56;;;;;;;1.50;0.70;;;9.30;93.60;;;;;;5062978;28;20034;-50
2023/12/25 08:46:21;;;;;;;1.40;1.00;;;9.30;93.60;;;;;;5079605;28;20029;-49
2023/12/25 08:48:48;;;;;;;0.80;0.80;;;9.30;93.70;;;;;;5062796;28;20052;-50
2023/12/25 08:51:13;;;;;;;0.68;0.68;;;9.30;93.60;;;;;;5079511;28;20068;-50
2023/12/25 08:53:39;;;;;;;1.20;1.08;;;9.30;93.60;;;;;;5047463;28;20029;-50
2023/12/25 08:56:05;;;;;;;1.23;0.80;;;9.30;93.70;;;;;;5047642;28;20030;-50
2023/12/25 08:58:30;;;;;;;1.13;0.88;;;9.30;93.70;;;;;;5079207;28;20052;-50
2023/12/25 09:00:56;;;;;;;1.58;1.00;;;9.40;93.70;;;;;;5079252;28;20029;-50
2023/12/25 09:03:22;;;;;;;1.25;1.02;;;9.40;93.70;;;;;;5045755;28;20117;-50
2023/12/25 09:05:47;;;;;;;1.98;1.10;;;9.40;93.70;;;;;;5047290;28;20026;-51
2023/12/25 09:08:13;;;;;;;0.85;0.73;;;9.40;93.70;;;;;;5079360;28;20021;-50
2023/12/25 09:10:38;;;;;;;1.58;0.93;;;9.40;94.10;;;;;;5079073;28;20029;-50
2023/12/25 09:13:04;;;;;;;0.85;0.77;;;9.40;93.70;;;;;;5062365;28;20040;-50
2023/12/25 09:15:29;;;;;;;1.42;0.93;;;9.40;93.70;;;;;;5079007;28;20386;-50
2023/12/25 09:17:55;;;;;;;1.70;1.10;;;9.40;93.70;;;;;;5078746;28;20068;-50
2023/12/25 09:20:21;;;;;;;1.23;1.00;;;9.40;93.70;;;;;;5045745;28;20032;-50
2023/12/25 09:22:47;;;;;;;1.08;0.90;;;9.40;93.70;;;;;;5078896;28;20029;-51
2023/12/25 09:25:13;;;;;;;2.58;1.13;;;9.50;93.70;;;;;;5062118;28;20029;-50
2023/12/25 09:27:38;;;;;;;0.88;0.68;;;9.40;93.70;;;;;;5062079;28;20071;-50
2023/12/25 09:30:04;;;;;;;1.70;0.93;;;9.40;93.60;;;;;;5046901;28;20076;-50
2023/12/25 09:32:30;;;;;;;1.13;0.90;;;9.40;93.60;;;;;;5047018;28;20034;-50
2023/12/25 09:34:56;;;;;;;1.58;1.00;;;9.50;93.70;;;;;;5078770;28;20499;-50
2023/12/25 09:37:28;;;;;;;1.77;1.08;;;9.50;93.70;;;;;;5078723;28;20034;-50
2023/12/25 09:39:53;;;;;;;1.38;1.00;;;9.50;93.70;;;;;;5046811;28;20363;-50
2023/12/25 09:42:19;;;;;;;1.10;0.90;;;9.50;93.70;;;;;;5078604;28;20032;-50
2023/12/25 09:44:45;;;;;;;0.93;0.75;;;9.50;93.70;;;;;;5046656;28;20041;-50
2023/12/25 09:47:10;;;;;;;1.13;0.77;;;9.50;93.60;;;;;;5078503;28;20064;-50
2023/12/25 09:49:36;;;;;;;1.95;0.90;;;9.50;93.60;;;;;;5062070;28;20033;-50
2023/12/25 09:52:02;;;;;;;2.13;1.20;;;9.50;93.60;;;;;;5045423;28;20026;-50
2023/12/25 09:54:28;;;;;;;1.00;0.90;;;9.50;93.60;;;;;;5078381;28;20037;-51
2023/12/25 09:56:55;;;;;;;0.80;0.80;;;9.60;93.50;;;;;;5046398;28;20057;-50
2023/12/25 09:59:20;;;;;;;1.35;1.08;;;9.50;93.50;;;;;;5078045;28;20021;-49
2023/12/25 10:01:46;;;;;;;1.38;1.02;;;9.50;93.50;;;;;;5061448;28;20389;-50
2023/12/25 10:04:12;;;;;;;1.00;0.90;;;9.60;93.50;;;;;;5078284;28;20071;-51
2023/12/25 10:06:37;;;;;;;1.65;1.00;;;9.60;93.40;;;;;;5078523;28;20030;-50
2023/12/25 10:09:03;;;;;;;1.30;0.90;;;9.60;93.50;;;;;;5078154;28;20029;-51
2023/12/25 10:11:29;;;;;;;1.30;0.95;;;9.60;93.40;;;;;;5046408;28;20033;-50
2023/12/25 10:13:55;;;;;;;0.85;0.82;;;9.60;93.30;;;;;;5046210;28;20731;-50
2023/12/25 10:16:21;;;;;;;1.60;0.93;;;9.60;93.30;;;;;;5078128;28;20029;-50
2023/12/25 10:18:47;;;;;;;1.10;0.88;;;9.60;93.30;;;;;;5078045;28;20033;-50
2023/12/25 10:21:13;;;;;;;0.73;0.73;;;9.70;93.20;;;;;;5078051;28;20037;-50
2023/12/25 10:23:38;;;;;;;2.88;1.10;;;9.70;93.20;;;;;;5046169;28;20077;-51
2023/12/25 10:26:04;;;;;;;1.38;0.90;;;9.70;93.20;;;;;;5078301;28;20030;-50
2023/12/25 10:28:33;;;;;;;1.13;1.00;;;9.70;93.20;;;;;;5078116;28;20026;-50
2023/12/25 10:31:03;;;;;;;1.42;1.15;;;9.70;93.10;;;;;;5061095;28;20029;-50
2023/12/25 10:33:29;;;;;;;1.20;0.93;;;9.70;93.10;;;;;;5046066;28;20026;-51
2023/12/25 10:36:03;;;;;;;1.15;0.90;;;9.70;93.10;;;;;;5061069;28;20037;-50
2023/12/25 10:38:32;;;;;;;1.67;1.02;;;9.70;93.10;;;;;;5079049;28;20036;-50
2023/12/25 10:40:57;;;;;;;1.23;0.95;;;9.70;93.10;;;;;;5081714;28;20029;-50
2023/12/25 10:43:23;;;;;;;1.20;0.90;;;9.70;93.00;;;;;;5081999;28;20013;-50
2023/12/25 10:45:52;;;;;;;0.75;0.75;;;9.70;93.00;;;;;;5065114;28;20029;-50
2023/12/25 10:48:17;;;;;;;1.25;0.90;;;9.70;93.00;;;;;;5064888;28;20040;-50
2023/12/25 10:50:43;;;;;;;1.63;1.00;;;9.80;92.90;;;;;;5081757;28;20418;-50
2023/12/25 10:53:08;;;;;;;2.10;0.90;;;9.80;93.00;;;;;;5048391;28;20037;-50
2023/12/25 10:55:38;;;;;;;1.40;0.85;;;9.80;93.00;;;;;;5065065;28;20101;-50
2023/12/25 10:58:06;;;;;;;1.25;0.90;;;9.80;93.00;;;;;;5080724;28;20041;-50
2023/12/25 11:00:35;;;;;;;1.52;0.90;;;9.80;93.00;;;;;;5049766;28;20048;-50
2023/12/25 11:03:01;;;;;;;1.75;1.00;;;9.80;93.00;;;;;;5048305;28;20052;-50
2023/12/25 11:05:27;;;;;;;1.13;0.88;;;9.80;92.90;;;;;;5065061;28;20029;-50
2023/12/25 11:07:52;;;;;;;1.30;0.90;;;9.90;92.90;;;;;;5082168;28;20113;-50
2023/12/25 11:10:18;;;;;;;0.82;0.82;;;9.90;92.80;;;;;;5049468;28;20081;-50
2023/12/25 11:12:44;;;;;;;1.48;1.20;;;9.90;92.60;;;;;;5049372;28;20037;-50
2023/12/25 11:15:11;;;;;;;1.33;0.90;;;9.90;92.50;;;;;;5064564;28;20052;-50
2023/12/25 11:17:37;;;;;;;1.15;0.80;;;9.90;92.40;;;;;;5080994;28;20037;-51
2023/12/25 11:20:04;;;;;;;1.00;0.80;;;9.90;92.50;;;;;;5064492;28;20030;-50
2023/12/25 11:22:33;;;;;;;1.40;1.10;;;9.90;92.50;;;;;;5081014;28;20056;-50
2023/12/25 11:24:59;;;;;;;1.83;0.90;;;9.90;92.30;;;;;;5047688;28;20121;-50
2023/12/25 11:27:29;;;;;;;1.30;1.00;;;9.90;92.20;;;;;;5065014;28;20109;-50
2023/12/25 11:30:00;;;;;;;1.25;0.98;;;10.00;92.20;;;;;;5081247;28;20033;-50
2023/12/25 11:32:27;;;;;;;1.25;1.00;;;10.00;92.20;;;;;;5081295;28;20029;-50
2023/12/25 11:34:52;;;;;;;1.00;0.90;;;10.00;92.00;;;;;;5063874;28;20405;-50
2023/12/25 11:37:23;;;;;;;1.60;1.05;;;10.00;91.90;;;;;;5047529;28;20036;-50
2023/12/25 11:39:59;;;;;;;1.20;0.93;;;10.00;91.90;;;;;;5080068;28;20018;-50
2023/12/25 11:42:25;;;;;;;1.58;1.15;;;10.00;91.80;;;;;;5047248;28;20030;-51
2023/12/25 11:44:56;;;;;;;1.40;0.80;;;10.00;91.70;;;;;;5047131;28;20036;-50
2023/12/25 11:47:29;;;;;;;1.05;0.93;;;10.00;91.70;;;;;;5064066;28;20092;-50
2023/12/25 11:49:57;;;;;;;1.20;0.90;;;10.00;91.60;;;;;;5062191;28;20037;-51
2023/12/25 11:52:56;;;;;;;3.03;0.88;;;10.00;91.40;;;;;;5081266;28;20030;-50
2023/12/25 11:55:23;;;;;;;2.75;1.00;;;10.00;91.20;;;;;;5036237;28;20041;-51
2023/12/25 11:57:49;;;;;;;1.17;0.80;;;10.00;91.00;;;;;;5080404;28;20086;-50
2023/12/25 12:00:22;;;;;;;1.75;0.90;;;10.00;91.00;;;;;;5063764;28;20022;-50
2023/12/25 12:02:48;;;;;;;1.23;0.60;;;10.00;91.00;;;;;;5063369;28;20170;-50
2023/12/25 12:05:14;;;;;;;1.02;0.80;;;10.00;91.00;;;;;;5047132;28;20025;-51
2023/12/25 12:07:39;;;;;;;1.30;1.00;;;10.00;91.00;;;;;;5048916;28;20041;-50
2023/12/25 12:10:07;;;;;;;1.00;0.90;;;10.10;90.80;;;;;;5048754;28;20112;-50
2023/12/25 12:12:33;;;;;;;1.17;0.80;;;10.00;90.90;;;;;;5063656;28;20084;-50
2023/12/25 12:14:59;;;;;;;1.23;0.90;;;10.10;90.90;;;;;;5079902;28;20036;-50
2023/12/25 12:17:25;;;;;;;1.60;0.90;;;10.10;91.00;;;;;;5046864;28;20029;-50
2023/12/25 12:19:51;;;;;;;1.48;1.00;;;10.10;90.90;;;;;;5048096;28;20026;-50
2023/12/25 12:22:18;;;;;;;0.95;0.80;;;10.10;90.90;;;;;;5080121;28;20029;-50
2023/12/25 12:24:43;;;;;;;1.05;0.90;;;10.10;91.00;;;;;;5063241;28;20030;-50
2023/12/25 12:27:11;;;;;;;1.00;0.90;;;10.10;91.00;;;;;;5063257;28;20151;-50
2023/12/25 12:29:37;;;;;;;2.75;1.02;;;10.10;90.80;;;;;;5047908;28;20064;-50
2023/12/25 12:32:03;;;;;;;1.23;1.02;;;10.10;90.70;;;;;;5063010;28;20030;-50
2023/12/25 12:34:29;;;;;;;1.40;0.80;;;10.10;90.60;;;;;;5079762;28;20417;-50
2023/12/25 12:37:04;;;;;;;1.00;0.80;;;10.20;90.60;;;;;;5047795;28;20021;-50
2023/12/25 12:39:32;;;;;;;1.63;0.82;;;10.10;90.60;;;;;;5047841;28;20029;-50
2023/12/25 12:41:58;;;;;;;1.50;0.80;;;10.10;90.50;;;;;;5078934;28;20038;-50
2023/12/25 12:44:24;;;;;;;2.70;0.82;;;10.20;90.40;;;;;;5062917;28;20052;-50
2023/12/25 12:46:50;;;;;;;0.85;0.85;;;10.20;90.30;;;;;;5063133;28;20085;-50